Time;durP1;ratioP1;P1;durP2;ratioP2;P2;SDS_P1;SDS_P2;PMS_P1;PMS_P2;Temp;Humidity;BMP_temperature;BMP_pressure;BME280_temperature;BME280_humidity;BME280_pressure;Samples;Min_cycle;Max_cycle;Signal;HPM_P1;HPM_P2
2023/03/16 00:13:31;;;;;;;13.25;8.40;;;;;;;-1.18;70.61;100560.03;30622514;28;97312;-64
2023/03/16 00:28:34;;;;;;;14.82;8.27;;;;;;;-1.21;71.04;100571.50;30622207;28;96935;-66
2023/03/16 00:43:39;;;;;;;17.08;7.90;;;;;;;-1.27;70.96;100586.69;30620592;28;97571;-66
2023/03/16 00:58:42;;;;;;;14.25;7.63;;;;;;;-1.25;70.97;100590.91;30618509;28;96776;-65
2023/03/16 01:13:42;;;;;;;12.65;6.88;;;;;;;-1.26;71.37;100604.06;30617501;28;96682;-64
2023/03/16 01:28:43;;;;;;;12.05;6.10;;;;;;;-1.30;71.56;100615.63;30614534;28;97479;-64
2023/03/16 01:43:43;;;;;;;9.57;5.70;;;;;;;-1.32;72.24;100635.78;30614571;28;96642;-65
2023/03/16 01:58:44;;;;;;;12.05;5.68;;;;;;;-1.41;72.42;100632.75;30628107;28;98223;-64
2023/03/16 02:13:45;;;;;;;18.17;6.22;;;;;;;-1.47;72.62;100640.06;30612055;28;96672;-64
2023/03/16 02:29:33;;;;;;;10.00;4.80;;;;;;;-1.57;72.50;100650.16;30610627;28;96676;-66
2023/03/16 02:44:36;;;;;;;12.85;5.45;;;;;;;-1.65;73.45;100654.91;30622574;28;96762;-66
2023/03/16 02:59:36;;;;;;;10.32;5.00;;;;;;;-1.64;73.02;100667.06;30630100;28;96947;-64
2023/03/16 03:14:36;;;;;;;14.15;5.18;;;;;;;-1.70;73.25;100679.50;30628482;28;97063;-64
2023/03/16 03:29:37;;;;;;;12.07;4.75;;;;;;;-1.81;74.00;100681.84;30627747;28;97409;-65
2023/03/16 03:44:37;;;;;;;7.75;3.00;;;;;;;-1.80;74.45;100688.75;30623784;28;96690;-65
2023/03/16 03:59:42;;;;;;;6.00;3.83;;;;;;;-1.89;74.34;100694.44;30622646;28;97383;-65
2023/03/16 04:14:44;;;;;;;7.35;4.13;;;;;;;-1.99;74.36;100706.28;30621350;28;96755;-64
2023/03/16 04:29:44;;;;;;;9.68;4.93;;;;;;;-2.09;74.34;100719.81;30620533;28;96655;-64
2023/03/16 04:44:44;;;;;;;7.35;4.03;;;;;;;-2.11;74.53;100737.28;30618941;28;96749;-64
2023/03/16 04:59:45;;;;;;;6.45;3.47;;;;;;;-2.13;74.98;100733.94;30618221;28;96799;-65
2023/03/16 05:14:45;;;;;;;6.57;4.22;;;;;;;-2.10;75.49;100756.44;30616107;28;96688;-66
2023/03/16 05:29:46;;;;;;;6.78;4.05;;;;;;;-1.87;75.48;100755.28;30612546;28;97497;-66
2023/03/16 05:44:47;;;;;;;9.50;3.80;;;;;;;-1.32;75.95;100762.09;30600839;28;97258;-66
2023/03/16 05:59:47;;;;;;;5.95;3.55;;;;;;;-0.48;75.96;100778.56;30600814;28;96806;-67
2023/03/16 06:14:48;;;;;;;9.57;3.30;;;;;;;0.50;75.49;100790.47;30598231;28;97104;-66
2023/03/16 06:29:48;;;;;;;6.65;3.35;;;;;;;1.67;73.76;100806.13;30598262;28;97111;-66
2023/03/16 06:44:48;;;;;;;8.38;3.97;;;;;;;2.79;72.43;100804.91;30595651;28;96688;-66
2023/03/16 06:59:49;;;;;;;11.02;3.50;;;;;;;4.00;71.09;100821.03;30594920;28;96638;-67
2023/03/16 07:14:50;;;;;;;7.32;3.70;;;;;;;5.40;69.89;100825.44;30595270;28;97518;-67
2023/03/16 07:29:53;;;;;;;6.32;3.22;;;;;;;6.70;66.96;100836.94;30608262;28;97187;-67
2023/03/16 07:44:54;;;;;;;7.47;2.90;;;;;;;7.18;63.48;100842.66;30611106;28;96923;-67
2023/03/16 07:59:54;;;;;;;5.22;2.95;;;;;;;8.92;61.82;100851.00;30610939;28;96846;-67
2023/03/16 08:14:55;;;;;;;8.93;3.20;;;;;;;9.94;57.00;100859.97;30611902;28;97119;-68
2023/03/16 08:29:55;;;;;;;9.25;2.80;;;;;;;10.94;53.88;100872.38;30609133;28;96805;-67
2023/03/16 08:44:56;;;;;;;11.02;3.35;;;;;;;11.42;48.25;100878.19;30606474;28;97465;-67
2023/03/16 08:59:56;;;;;;;4.90;1.88;;;;;;;13.97;45.59;100886.25;30606159;28;97013;-66
2023/03/16 09:14:57;;;;;;;4.30;1.73;;;;;;;27.97;27.79;100898.59;30603407;28;97337;-67
2023/03/16 09:29:59;;;;;;;7.70;1.70;;;;;;;33.34;17.19;100890.31;30604376;28;97660;-67
2023/03/16 09:45:05;;;;;;;5.63;1.53;;;;;;;29.86;16.39;100890.47;30601828;28;97556;-67
2023/03/16 10:00:20;;;;;;;5.23;1.67;;;;;;;34.00;13.33;100889.22;30601360;28;96811;-67
2023/03/16 10:15:31;;;;;;;6.50;2.43;;;;;;;32.44;13.30;100898.81;30599433;28;96794;-67
2023/03/16 10:30:37;;;;;;;9.60;2.37;;;;;;;27.34;16.27;100895.84;30597879;28;97736;-67
2023/03/16 10:45:38;;;;;;;8.10;2.07;;;;;;;23.28;17.63;100895.34;30595526;28;97293;-66
2023/03/16 11:00:42;;;;;;;6.47;1.60;;;;;;;29.90;12.92;100884.44;30606727;28;97018;-67
2023/03/16 11:15:56;;;;;;;6.03;1.67;;;;;;;37.68;9.64;100873.78;30616837;28;97425;-67
2023/03/16 11:31:18;;;;;;;4.73;1.40;;;;;;;42.60;6.59;100872.53;30614546;28;97162;-67
2023/03/16 11:46:23;;;;;;;6.30;1.73;;;;;;;42.19;7.22;100858.16;30613225;28;97129;-67
2023/03/16 12:01:37;;;;;;;7.60;1.57;;;;;;;48.25;5.18;100834.63;30613392;28;97402;-67
2023/03/16 12:16:45;;;;;;;4.23;1.57;;;;;;;44.39;5.14;100822.91;30608358;28;97474;-67
2023/03/16 12:31:54;;;;;;;5.83;1.53;;;;;;;42.25;5.56;100815.53;30609492;28;97344;-68
2023/03/16 12:47:14;;;;;;;8.30;1.80;;;;;;;41.28;6.51;100821.88;30607536;28;98013;-71
2023/03/16 13:02:23;;;;;;;3.70;1.50;;;;;;;44.39;5.15;100816.50;30606272;28;97967;-71
2023/03/16 13:17:30;;;;;;;4.50;1.57;;;;;;;40.55;6.39;100812.97;30602540;28;97548;-72
2023/03/16 13:32:32;;;;;;;4.63;1.80;;;;;;;39.82;6.54;100810.22;30602033;28;96759;-71
2023/03/16 13:47:32;;;;;;;4.13;1.30;;;;;;;34.78;8.65;100788.53;30602195;28;96796;-67
2023/03/16 14:02:40;;;;;;;6.03;1.30;;;;;;;36.23;7.30;100797.66;30602163;28;97250;-67
2023/03/16 14:17:42;;;;;;;5.67;1.83;;;;;;;34.38;7.87;100787.38;30598140;28;96831;-64
2023/03/16 14:33:03;;;;;;;6.13;1.87;;;;;;;23.74;13.48;100766.84;30605555;28;97522;-62
2023/03/16 14:48:15;;;;;;;5.10;1.47;;;;;;;17.97;17.79;100758.31;30617804;28;97387;-62
2023/03/16 15:03:16;;;;;;;6.03;2.10;;;;;;;16.03;19.92;100759.91;30616767;28;97225;-61
2023/03/16 15:18:16;;;;;;;6.50;1.85;;;;;;;14.12;22.09;100763.09;30615242;28;96847;-60
2023/03/16 15:33:17;;;;;;;4.28;1.67;;;;;;;11.60;24.93;100758.84;30613447;28;96919;-61
2023/03/16 15:48:23;;;;;;;6.47;1.98;;;;;;;10.46;26.31;100766.13;30611146;28;96778;-61
2023/03/16 16:03:24;;;;;;;4.63;1.40;;;;;;;9.56;27.48;100778.56;30609860;28;96763;-61
2023/03/16 16:18:29;;;;;;;4.83;1.80;;;;;;;8.83;28.44;100780.16;30610495;28;96772;-60
2023/03/16 16:33:32;;;;;;;7.07;2.07;;;;;;;8.05;30.32;100783.72;30610087;28;97470;-60
2023/03/16 16:48:37;;;;;;;14.20;4.73;;;;;;;7.08;31.92;100787.81;30607328;28;96825;-60
2023/03/16 17:03:37;;;;;;;99.82;45.63;;;;;;;6.32;32.62;100797.81;30602596;28;96750;-60
2023/03/16 17:18:38;;;;;;;7.80;3.17;;;;;;;5.78;34.09;100810.09;30598367;28;97526;-60
2023/03/16 17:33:38;;;;;;;11.05;3.67;;;;;;;5.25;35.89;100822.19;30599333;28;97269;-60
2023/03/16 17:48:39;;;;;;;12.65;7.18;;;;;;;4.80;36.99;100832.69;30600041;28;96761;-62
2023/03/16 18:03:42;;;;;;;22.55;9.57;;;;;;;4.45;38.71;100833.56;30599797;28;96806;-62
2023/03/16 18:18:43;;;;;;;28.73;11.73;;;;;;;4.13;39.82;100840.28;30601682;28;97509;-60
2023/03/16 18:33:45;;;;;;;37.78;14.57;;;;;;;3.76;40.69;100847.34;30596744;28;97140;-60
2023/03/16 18:48:47;;;;;;;27.27;11.98;;;;;;;3.39;41.77;100841.13;30595785;28;96830;-60
2023/03/16 19:03:47;;;;;;;42.90;19.45;;;;;;;3.14;41.95;100843.78;30595689;28;96878;-61
2023/03/16 19:18:48;;;;;;;25.55;12.68;;;;;;;2.89;42.82;100837.56;30600422;28;97265;-62
2023/03/16 19:33:52;;;;;;;37.08;17.35;;;;;;;2.56;43.93;100838.03;30624384;28;96716;-63
2023/03/16 19:48:53;;;;;;;35.67;18.70;;;;;;;2.33;44.43;100851.75;30622133;28;96820;-61
2023/03/16 20:03:53;;;;;;;40.47;19.25;;;;;;;2.01;45.27;100867.84;30621649;28;96800;-61
2023/03/16 20:18:56;;;;;;;56.30;24.10;;;;;;;1.84;46.48;100873.34;30613536;28;97507;-62
2023/03/16 20:33:57;;;;;;;51.83;19.63;;;;;;;1.59;47.08;100859.13;30616578;28;97024;-62
2023/03/16 20:48:59;;;;;;;54.10;22.15;;;;;;;1.37;47.42;100853.50;30617778;28;96758;-62
2023/03/16 21:04:00;;;;;;;43.83;18.20;;;;;;;1.14;48.79;100851.34;30617154;28;96656;-63
2023/03/16 21:19:00;;;;;;;45.42;19.90;;;;;;;0.90;49.48;100842.31;30614879;28;97382;-61
2023/03/16 21:34:01;;;;;;;48.38;21.48;;;;;;;0.65;50.12;100813.16;30613673;28;96804;-62
2023/03/16 21:49:01;;;;;;;39.85;17.35;;;;;;;0.54;50.87;100810.31;30612246;28;97183;-63
2023/03/16 22:04:11;;;;;;;32.55;15.32;;;;;;;0.32;50.86;100803.72;30627681;28;98451;-63
2023/03/16 22:19:16;;;;;;;40.28;13.40;;;;;;;0.25;51.54;100806.81;30611368;28;97480;-61
2023/03/16 22:34:28;;;;;;;51.95;20.80;;;;;;;0.14;52.19;100796.94;30610964;28;97313;-62
2023/03/16 22:49:29;;;;;;;54.17;21.30;;;;;;;0.02;52.79;100810.72;30610939;28;96675;-64
2023/03/16 23:04:31;;;;;;;53.28;21.27;;;;;;;-0.08;53.12;100819.09;30630909;28;96708;-63
2023/03/16 23:19:33;;;;;;;40.78;19.88;;;;;;;-0.16;53.58;100844.88;30628978;28;96552;-63
2023/03/16 23:34:33;;;;;;;40.78;16.02;;;;;;;-0.31;53.59;100850.97;30627310;28;97428;-64
2023/03/16 23:49:37;;;;;;;33.63;15.13;;;;;;;-0.40;54.33;100818.25;30625550;28;96821;-64
